createdAt,value
2023-02-17T00:02:07.987Z,6.40
2023-02-17T00:04:36.328Z,6.30
2023-02-17T00:07:04.540Z,6.30
2023-02-17T00:09:32.400Z,6.30
2023-02-17T00:12:01.674Z,6.20
2023-02-17T00:14:29.606Z,6.20
2023-02-17T00:16:57.559Z,6.20
2023-02-17T00:19:28.296Z,6.20
2023-02-17T00:21:59.130Z,6.20
2023-02-17T00:24:38.934Z,6.10
2023-02-17T00:27:11.647Z,6.00
2023-02-17T00:29:45.118Z,5.90
2023-02-17T00:32:13.450Z,5.80
2023-02-17T00:34:41.932Z,5.80
2023-02-17T00:37:14.996Z,5.70
2023-02-17T00:39:45.831Z,5.70
2023-02-17T00:42:16.681Z,5.60
2023-02-17T00:44:45.050Z,5.70
2023-02-17T00:47:20.163Z,5.60
2023-02-17T00:49:51.243Z,5.50
2023-02-17T00:52:20.031Z,5.50
2023-02-17T00:54:48.293Z,5.40
2023-02-17T00:57:21.479Z,5.30
2023-02-17T00:59:49.989Z,5.30
2023-02-17T01:02:18.028Z,5.20
2023-02-17T01:04:49.017Z,5.20
2023-02-17T01:07:22.126Z,5.10
2023-02-17T01:09:50.440Z,5.10
2023-02-17T01:12:19.238Z,5.10
2023-02-17T01:14:51.374Z,5.10
2023-02-17T01:17:19.581Z,5.00
2023-02-17T01:19:50.405Z,4.90
2023-02-17T01:22:18.559Z,4.90
2023-02-17T01:24:46.392Z,4.80
2023-02-17T01:27:14.173Z,4.70
2023-02-17T01:29:44.423Z,4.50
2023-02-17T01:32:12.922Z,4.30
2023-02-17T01:34:41.399Z,4.30
2023-02-17T01:37:09.355Z,4.30
2023-02-17T01:39:37.535Z,4.30
2023-02-17T01:42:05.739Z,4.20
2023-02-17T01:44:33.775Z,4.00
2023-02-17T01:47:01.532Z,3.90
2023-02-17T01:49:50.685Z,3.80
2023-02-17T01:52:38.284Z,3.70
2023-02-17T01:55:15.820Z,3.50
2023-02-17T01:57:46.475Z,3.40
2023-02-17T02:00:20.734Z,3.30
2023-02-17T02:02:54.450Z,3.10
2023-02-17T02:05:30.656Z,3.10
2023-02-17T02:08:04.168Z,3.20
2023-02-17T02:10:35.154Z,3.20
2023-02-17T02:13:07.366Z,3.20
2023-02-17T02:15:46.275Z,3.20
2023-02-17T02:18:53.868Z,3.20
2023-02-17T02:21:50.244Z,3.20
2023-02-17T02:24:47.000Z,3.20
2023-02-17T02:27:53.825Z,3.10
2023-02-17T02:30:31.291Z,3.10
2023-02-17T02:33:42.457Z,3.10
2023-02-17T02:36:22.128Z,3.10
2023-02-17T02:39:14.171Z,3.30
2023-02-17T02:42:04.258Z,3.30
2023-02-17T02:44:32.702Z,3.30
2023-02-17T02:47:32.946Z,3.30
2023-02-17T02:50:01.264Z,3.40
2023-02-17T02:52:48.048Z,3.40
2023-02-17T02:55:24.456Z,3.30
2023-02-17T02:58:22.164Z,3.30
2023-02-17T03:00:55.836Z,3.20
2023-02-17T03:03:34.120Z,3.20
2023-02-17T03:06:19.046Z,3.20
2023-02-17T03:08:56.594Z,3.20
2023-02-17T03:11:35.371Z,3.20
2023-02-17T03:14:13.562Z,3.10
2023-02-17T03:16:43.118Z,3.00
2023-02-17T03:19:12.888Z,3.00
2023-02-17T03:21:49.196Z,3.00
2023-02-17T03:24:18.539Z,3.00
2023-02-17T03:26:46.703Z,3.00
2023-02-17T03:29:14.687Z,2.90
2023-02-17T03:31:43.151Z,2.80
2023-02-17T03:34:11.464Z,2.80
2023-02-17T03:36:39.940Z,2.80
2023-02-17T03:39:07.997Z,2.80
2023-02-17T03:41:36.476Z,2.80
2023-02-17T03:44:04.433Z,2.80
2023-02-17T03:46:32.228Z,2.80
2023-02-17T03:48:59.886Z,2.70
2023-02-17T03:51:27.848Z,2.70
2023-02-17T03:53:55.976Z,2.70
2023-02-17T03:56:24.050Z,2.60
2023-02-17T03:58:52.283Z,2.60
2023-02-17T04:01:20.545Z,2.60
2023-02-17T04:03:53.801Z,2.60
2023-02-17T04:06:22.203Z,2.50
2023-02-17T04:08:52.645Z,2.50
2023-02-17T04:11:20.443Z,2.40
2023-02-17T04:13:50.885Z,2.40
2023-02-17T04:16:19.076Z,2.40
2023-02-17T04:18:46.860Z,2.50
2023-02-17T04:21:14.713Z,2.40
2023-02-17T04:23:42.509Z,2.50
2023-02-17T04:26:10.595Z,2.50
2023-02-17T04:28:40.362Z,2.50
2023-02-17T04:31:09.077Z,2.40
2023-02-17T04:33:42.530Z,2.40
2023-02-17T04:36:27.021Z,2.30
2023-02-17T04:38:57.731Z,2.30
2023-02-17T04:41:25.723Z,2.20
2023-02-17T04:43:53.809Z,2.20
2023-02-17T04:46:21.959Z,2.20
2023-02-17T04:48:49.830Z,2.00
2023-02-17T04:51:20.381Z,2.00
2023-02-17T04:53:48.428Z,1.80
2023-02-17T04:56:16.115Z,1.80
2023-02-17T04:58:44.254Z,1.90
2023-02-17T05:01:15.343Z,1.90
2023-02-17T05:03:43.306Z,1.90
2023-02-17T05:06:13.235Z,2.00
2023-02-17T05:08:40.927Z,2.00
2023-02-17T05:11:08.770Z,2.00
2023-02-17T05:13:36.631Z,2.00
2023-02-17T05:16:07.388Z,2.00
2023-02-17T05:19:01.465Z,1.90
2023-02-17T05:21:29.203Z,1.90
2023-02-17T05:23:56.994Z,2.00
2023-02-17T05:26:24.833Z,2.10
2023-02-17T05:28:52.816Z,2.10
2023-02-17T05:31:20.720Z,2.00
2023-02-17T05:33:48.754Z,2.00
2023-02-17T05:36:16.602Z,2.00
2023-02-17T05:38:46.235Z,2.10
2023-02-17T05:41:14.243Z,2.10
2023-02-17T05:43:41.976Z,2.20
2023-02-17T05:46:10.394Z,2.20
2023-02-17T05:48:38.661Z,2.20
2023-02-17T05:51:17.587Z,2.20
2023-02-17T05:53:49.001Z,2.30
2023-02-17T05:56:19.365Z,2.20
2023-02-17T05:58:47.252Z,2.30
2023-02-17T06:01:15.064Z,2.30
2023-02-17T06:03:42.949Z,2.20
2023-02-17T06:06:11.004Z,2.30
2023-02-17T06:08:39.410Z,2.30
2023-02-17T06:11:07.294Z,2.30
2023-02-17T06:13:35.098Z,2.30
2023-02-17T06:16:03.110Z,2.20
2023-02-17T06:18:30.703Z,2.30
2023-02-17T06:20:59.654Z,2.30
2023-02-17T06:23:28.431Z,2.20
2023-02-17T06:25:57.285Z,2.30
2023-02-17T06:28:25.280Z,2.20
2023-02-17T06:30:53.285Z,2.20
2023-02-17T06:33:21.262Z,2.20
2023-02-17T06:35:50.933Z,2.30
2023-02-17T06:38:18.764Z,2.40
2023-02-17T06:40:46.611Z,2.40
2023-02-17T06:43:14.476Z,2.40
2023-02-17T06:45:42.392Z,2.40
2023-02-17T06:48:10.235Z,2.40
2023-02-17T06:50:39.086Z,2.40
2023-02-17T06:53:06.769Z,2.40
2023-02-17T06:55:35.539Z,2.40
2023-02-17T06:58:03.428Z,2.50
2023-02-17T07:00:31.532Z,2.50
2023-02-17T07:02:59.586Z,2.60
2023-02-17T07:05:27.682Z,2.60
2023-02-17T07:07:58.801Z,2.60
2023-02-17T07:10:26.666Z,2.60
2023-02-17T07:12:54.385Z,2.70
2023-02-17T07:15:22.172Z,2.90
2023-02-17T07:17:50.079Z,3.10
2023-02-17T07:20:18.044Z,3.30
2023-02-17T07:22:49.157Z,3.50
2023-02-17T07:25:17.903Z,3.60
2023-02-17T07:27:48.369Z,3.70
2023-02-17T07:30:16.419Z,3.60
2023-02-17T07:32:44.657Z,3.80
2023-02-17T07:35:18.144Z,3.90
2023-02-17T07:37:47.144Z,3.90
2023-02-17T07:40:15.118Z,3.90
2023-02-17T07:42:42.868Z,3.80
2023-02-17T07:45:10.845Z,3.90
2023-02-17T07:47:39.112Z,3.90
2023-02-17T07:50:08.982Z,3.90
2023-02-17T07:52:36.921Z,4.00
2023-02-17T07:55:05.066Z,4.10
2023-02-17T07:57:35.494Z,4.30
2023-02-17T08:00:09.894Z,4.80
2023-02-17T08:02:41.722Z,5.50
2023-02-17T08:05:09.557Z,6.20
2023-02-17T08:07:40.004Z,6.70
2023-02-17T08:10:29.963Z,7.30
2023-02-17T08:13:19.474Z,7.80
2023-02-17T08:15:47.322Z,8.40
2023-02-17T08:18:15.063Z,9.00
2023-02-17T08:20:42.702Z,9.40
2023-02-17T08:23:12.620Z,9.60
2023-02-17T08:25:40.354Z,9.70
2023-02-17T08:28:08.062Z,10.00
2023-02-17T08:30:41.363Z,10.10
2023-02-17T08:33:08.851Z,10.20
2023-02-17T08:35:36.455Z,10.20
2023-02-17T08:38:04.350Z,10.00
2023-02-17T08:40:32.291Z,9.80
2023-02-17T08:43:02.271Z,10.10
2023-02-17T08:45:31.061Z,10.80
2023-02-17T08:47:58.857Z,11.20
2023-02-17T08:50:26.681Z,11.70
2023-02-17T08:52:54.377Z,12.00
2023-02-17T08:55:24.400Z,12.40
2023-02-17T08:57:52.010Z,12.60
2023-02-17T09:00:22.726Z,12.70
2023-02-17T09:02:50.656Z,13.10
2023-02-17T09:05:23.430Z,13.50
2023-02-17T09:08:13.373Z,13.40
2023-02-17T09:10:44.501Z,13.50
2023-02-17T09:13:15.263Z,13.80
2023-02-17T09:15:42.973Z,14.10
2023-02-17T09:18:10.777Z,14.60
2023-02-17T09:20:39.747Z,14.70
2023-02-17T09:23:08.327Z,15.10
2023-02-17T09:25:36.073Z,15.60
2023-02-17T09:28:04.010Z,15.80
2023-02-17T09:30:31.814Z,16.00
2023-02-17T09:33:00.288Z,16.20
2023-02-17T09:35:31.695Z,15.70
2023-02-17T09:37:59.698Z,15.90
2023-02-17T09:40:49.120Z,15.80
2023-02-17T09:43:25.525Z,16.30
2023-02-17T09:46:02.414Z,16.70
2023-02-17T09:48:32.966Z,16.80
2023-02-17T09:51:26.592Z,16.70
2023-02-17T09:54:20.550Z,17.00
2023-02-17T09:56:51.071Z,17.00
2023-02-17T09:59:33.603Z,17.20
2023-02-17T10:02:06.267Z,17.10
2023-02-17T10:04:46.312Z,17.10
2023-02-17T10:07:21.096Z,17.20
2023-02-17T10:09:57.881Z,17.30
2023-02-17T10:12:33.706Z,17.90
2023-02-17T10:15:19.688Z,18.20
2023-02-17T10:18:17.701Z,18.50
2023-02-17T10:21:00.197Z,18.70
2023-02-17T10:23:29.534Z,18.30
2023-02-17T10:26:18.999Z,18.80
2023-02-17T10:28:57.904Z,18.90
2023-02-17T10:31:41.292Z,18.60
2023-02-17T10:34:52.892Z,18.70
2023-02-17T10:37:44.234Z,17.80
2023-02-17T10:40:19.796Z,17.20
2023-02-17T10:42:50.803Z,16.50
2023-02-17T10:45:21.655Z,16.00
2023-02-17T10:47:49.524Z,15.70
2023-02-17T10:50:23.345Z,15.20
2023-02-17T10:52:52.050Z,15.30
2023-02-17T10:55:44.021Z,15.10
2023-02-17T10:58:19.424Z,15.30
2023-02-17T11:00:49.930Z,15.30
2023-02-17T11:03:23.682Z,15.20
2023-02-17T11:06:07.458Z,15.20
2023-02-17T11:08:44.833Z,15.10
2023-02-17T11:11:22.036Z,14.70
2023-02-17T11:14:18.017Z,14.40
2023-02-17T11:16:51.827Z,14.40
2023-02-17T11:19:37.410Z,14.30
2023-02-17T11:22:26.167Z,14.30
2023-02-17T11:25:03.781Z,14.20
2023-02-17T11:27:31.364Z,14.10
2023-02-17T11:30:16.124Z,14.00
2023-02-17T11:32:43.821Z,13.90
2023-02-17T11:35:38.544Z,14.10
2023-02-17T11:38:18.959Z,14.00
2023-02-17T11:41:01.526Z,14.00
2023-02-17T11:43:31.280Z,14.00
2023-02-17T11:46:08.252Z,14.00
2023-02-17T11:49:00.591Z,14.10
2023-02-17T11:51:56.844Z,14.00
2023-02-17T11:54:32.769Z,14.00
2023-02-17T11:57:32.683Z,14.00
2023-02-17T12:00:22.680Z,14.00
2023-02-17T12:03:05.474Z,14.30
2023-02-17T12:05:57.265Z,14.50
2023-02-17T12:08:41.860Z,14.50
2023-02-17T12:12:02.816Z,14.30
2023-02-17T12:14:54.093Z,14.30
2023-02-17T12:17:42.035Z,14.40
2023-02-17T12:20:15.325Z,14.40
2023-02-17T12:23:28.945Z,14.50
2023-02-17T12:26:32.107Z,14.60
2023-02-17T12:29:08.559Z,14.60
2023-02-17T12:31:55.680Z,14.40
2023-02-17T12:34:33.575Z,14.30
2023-02-17T12:37:30.016Z,14.30
2023-02-17T12:40:04.816Z,14.20
2023-02-17T12:42:43.573Z,14.20
2023-02-17T12:45:13.775Z,14.20
2023-02-17T12:47:58.469Z,14.30
2023-02-17T12:50:38.384Z,14.30
2023-02-17T12:53:13.524Z,14.40
2023-02-17T12:55:48.583Z,14.40
2023-02-17T12:58:25.153Z,14.30
2023-02-17T13:01:09.051Z,14.40
2023-02-17T13:03:37.250Z,14.50
2023-02-17T13:06:20.378Z,14.70
2023-02-17T13:09:15.762Z,14.80
2023-02-17T13:11:45.545Z,14.70
2023-02-17T13:14:39.633Z,14.60
2023-02-17T13:17:24.250Z,14.40
2023-02-17T13:20:11.689Z,14.40
2023-02-17T13:22:41.357Z,14.40
2023-02-17T13:25:29.433Z,14.70
2023-02-17T13:27:59.360Z,14.80
2023-02-17T13:30:46.304Z,14.80
2023-02-17T13:33:23.429Z,14.80
2023-02-17T13:35:53.768Z,14.60
2023-02-17T13:38:32.687Z,14.50
2023-02-17T13:41:11.571Z,14.50
2023-02-17T13:43:43.084Z,14.50
2023-02-17T13:46:26.516Z,14.50
2023-02-17T13:49:23.961Z,14.50
2023-02-17T13:51:51.849Z,14.50
2023-02-17T13:54:51.468Z,14.70
2023-02-17T13:58:08.984Z,14.70
2023-02-17T14:00:21.656Z,14.80
2023-02-17T14:03:02.606Z,14.90
2023-02-17T14:05:33.335Z,14.90
2023-02-17T14:08:06.576Z,15.00
2023-02-17T14:10:35.165Z,15.00
2023-02-17T14:13:02.992Z,15.00
2023-02-17T14:15:30.804Z,15.00
2023-02-17T14:17:59.066Z,15.00
2023-02-17T14:20:31.614Z,15.00
2023-02-17T14:23:08.861Z,15.00
2023-02-17T14:25:39.536Z,15.10
2023-02-17T14:28:21.567Z,15.30
2023-02-17T14:30:52.881Z,15.40
2023-02-17T14:33:24.569Z,15.60
2023-02-17T14:35:57.335Z,15.80
2023-02-17T14:38:37.564Z,15.90
2023-02-17T14:41:06.489Z,15.80
2023-02-17T14:43:34.338Z,15.60
2023-02-17T14:46:02.278Z,15.40
2023-02-17T14:48:39.249Z,15.20
2023-02-17T14:51:23.196Z,15.10
2023-02-17T14:53:52.159Z,14.90
2023-02-17T14:56:38.536Z,14.80
2023-02-17T14:59:06.467Z,14.60
2023-02-17T15:01:36.565Z,14.60
2023-02-17T15:04:04.275Z,14.50
2023-02-17T15:06:44.562Z,14.50
2023-02-17T15:09:15.308Z,14.40
2023-02-17T15:11:45.790Z,14.50
2023-02-17T15:14:16.686Z,14.40
2023-02-17T15:16:48.501Z,14.40
2023-02-17T15:19:21.903Z,14.40
2023-02-17T15:21:51.464Z,14.40
2023-02-17T15:24:29.870Z,14.30
2023-02-17T15:26:59.601Z,14.30
2023-02-17T15:29:28.588Z,14.30
2023-02-17T15:31:57.779Z,14.20
2023-02-17T15:34:35.499Z,14.20
2023-02-17T15:37:03.516Z,14.10
2023-02-17T15:39:37.471Z,14.00
2023-02-17T15:42:13.608Z,13.90
2023-02-17T15:44:48.395Z,13.80
2023-02-17T15:47:22.153Z,13.80
2023-02-17T15:49:49.966Z,13.70
2023-02-17T15:52:17.733Z,13.60
2023-02-17T15:54:46.391Z,13.50
2023-02-17T15:57:24.885Z,13.50
2023-02-17T15:59:55.435Z,13.40
2023-02-17T16:02:25.144Z,13.40
2023-02-17T16:04:56.205Z,13.30
2023-02-17T16:07:23.872Z,13.30
2023-02-17T16:09:54.326Z,13.20
2023-02-17T16:12:27.747Z,13.10
2023-02-17T16:14:57.464Z,13.00
2023-02-17T16:17:26.140Z,12.90
2023-02-17T16:19:59.110Z,12.80
2023-02-17T16:22:33.443Z,12.70
2023-02-17T16:25:01.297Z,12.60
2023-02-17T16:27:28.963Z,12.50
2023-02-17T16:29:56.913Z,12.40
2023-02-17T16:32:24.841Z,12.30
2023-02-17T16:34:52.976Z,12.20
2023-02-17T16:37:24.069Z,12.00
2023-02-17T16:39:54.933Z,11.90
2023-02-17T16:42:25.639Z,11.80
2023-02-17T16:44:53.630Z,11.70
2023-02-17T16:47:22.727Z,11.60
2023-02-17T16:49:50.637Z,11.60
2023-02-17T16:52:25.662Z,11.50
2023-02-17T16:54:54.816Z,11.30
2023-02-17T16:57:22.925Z,11.20
2023-02-17T16:59:50.894Z,11.20
2023-02-17T17:02:20.249Z,11.10
2023-02-17T17:05:05.143Z,11.10
2023-02-17T17:07:32.978Z,11.00
2023-02-17T17:10:15.912Z,11.00
2023-02-17T17:12:45.113Z,10.90
2023-02-17T17:15:15.008Z,10.80
2023-02-17T17:17:58.010Z,10.80
2023-02-17T17:20:37.451Z,10.70
2023-02-17T17:23:28.506Z,10.90
2023-02-17T17:26:04.543Z,10.80
2023-02-17T17:28:35.413Z,10.70
2023-02-17T17:31:03.931Z,10.80
2023-02-17T17:33:41.804Z,10.80
2023-02-17T17:36:19.700Z,10.80
2023-02-17T17:38:47.607Z,10.70
2023-02-17T17:41:16.034Z,10.70
2023-02-17T17:43:46.730Z,10.60
2023-02-17T17:46:24.543Z,10.60
2023-02-17T17:48:52.961Z,10.50
2023-02-17T17:51:22.663Z,10.50
2023-02-17T17:53:53.612Z,10.40
2023-02-17T17:56:26.654Z,10.40
2023-02-17T17:58:55.868Z,10.40
2023-02-17T18:01:23.984Z,10.30
2023-02-17T18:03:52.054Z,10.20
2023-02-17T18:06:38.604Z,10.10
2023-02-17T18:09:11.993Z,10.10
2023-02-17T18:11:45.416Z,10.00
2023-02-17T18:14:14.809Z,10.00
2023-02-17T18:16:45.369Z,10.00
2023-02-17T18:19:16.482Z,9.80
2023-02-17T18:21:44.942Z,9.80
2023-02-17T18:24:12.879Z,9.70
2023-02-17T18:26:41.207Z,9.60
2023-02-17T18:29:09.286Z,9.50
2023-02-17T18:31:37.940Z,9.50
2023-02-17T18:34:09.520Z,9.50
2023-02-17T18:36:37.934Z,9.50
2023-02-17T18:39:09.016Z,9.40
2023-02-17T18:41:39.428Z,9.40
2023-02-17T18:44:07.411Z,9.40
2023-02-17T18:46:38.355Z,9.40
2023-02-17T18:49:09.719Z,9.30
2023-02-17T18:51:37.866Z,9.30
2023-02-17T18:54:17.312Z,9.30
2023-02-17T18:56:46.157Z,9.20
2023-02-17T18:59:14.255Z,9.20
2023-02-17T19:01:43.377Z,9.10
2023-02-17T19:04:12.985Z,9.10
2023-02-17T19:06:41.251Z,9.10
2023-02-17T19:09:09.082Z,9.10
2023-02-17T19:11:36.744Z,9.00
2023-02-17T19:14:04.724Z,9.10
2023-02-17T19:16:32.683Z,9.10
2023-02-17T19:19:01.605Z,9.00
2023-02-17T19:21:29.310Z,8.90
2023-02-17T19:23:57.161Z,8.90
2023-02-17T19:26:27.778Z,8.80
2023-02-17T19:28:55.545Z,8.80
2023-02-17T19:31:26.796Z,8.80
2023-02-17T19:33:54.699Z,8.70
2023-02-17T19:36:23.665Z,8.70
2023-02-17T19:38:55.756Z,8.60
2023-02-17T19:41:24.655Z,8.60
2023-02-17T19:43:57.312Z,8.60
2023-02-17T19:46:34.521Z,8.60
2023-02-17T19:49:06.584Z,8.60
2023-02-17T19:51:43.272Z,8.60
2023-02-17T19:57:02.276Z,8.50
2023-02-17T19:59:32.851Z,8.50
2023-02-17T20:02:04.008Z,8.50
2023-02-17T20:04:35.398Z,8.40
2023-02-17T20:07:07.182Z,8.30
2023-02-17T20:09:39.653Z,8.20
2023-02-17T20:12:11.608Z,8.10
2023-02-17T20:14:39.556Z,8.00
2023-02-17T20:17:25.864Z,8.00
2023-02-17T20:20:08.160Z,8.00
2023-02-17T20:26:39.579Z,7.90
2023-02-17T20:29:45.299Z,7.80
2023-02-17T20:32:16.334Z,7.80
2023-02-17T20:35:10.002Z,7.80
2023-02-17T20:37:57.554Z,7.70
2023-02-17T20:40:40.188Z,7.70
2023-02-17T20:43:28.367Z,7.70
2023-02-17T20:46:09.330Z,7.60
2023-02-17T20:49:03.437Z,7.60
2023-02-17T20:51:35.878Z,7.50
2023-02-17T20:54:14.176Z,7.50
2023-02-17T20:56:57.947Z,7.50
2023-02-17T20:59:29.723Z,7.40
2023-02-17T21:02:21.280Z,7.40
2023-02-17T21:05:04.932Z,7.40
2023-02-17T21:07:33.648Z,7.30
2023-02-17T21:10:13.644Z,7.30
2023-02-17T21:12:58.856Z,7.30
2023-02-17T21:15:37.625Z,7.30
2023-02-17T21:18:14.338Z,7.30
2023-02-17T21:20:49.807Z,7.30
2023-02-17T21:23:30.638Z,7.30
2023-02-17T21:26:14.336Z,7.20
2023-02-17T21:28:51.791Z,7.10
2023-02-17T21:31:30.341Z,7.10
2023-02-17T21:34:07.548Z,7.20
2023-02-17T21:36:42.707Z,7.20
2023-02-17T21:39:26.795Z,7.10
2023-02-17T21:42:07.018Z,7.20
2023-02-17T21:44:55.743Z,7.10
2023-02-17T21:47:41.565Z,7.10
2023-02-17T21:50:39.800Z,7.10
2023-02-17T21:53:27.368Z,7.00
2023-02-17T21:56:05.099Z,6.90
2023-02-17T21:58:38.154Z,6.90
2023-02-17T22:01:10.195Z,7.00
2023-02-17T22:03:38.831Z,7.00
2023-02-17T22:06:33.525Z,7.10
2023-02-17T22:09:01.937Z,7.00
2023-02-17T22:11:45.444Z,7.00
2023-02-17T22:14:20.369Z,7.10
2023-02-17T22:17:02.113Z,6.90
2023-02-17T22:19:35.398Z,7.00
2023-02-17T22:22:20.444Z,6.90
2023-02-17T22:25:04.624Z,6.90
2023-02-17T22:27:42.373Z,6.90
2023-02-17T22:30:16.742Z,6.90
2023-02-17T22:32:47.941Z,6.80
2023-02-17T22:35:15.655Z,6.80
2023-02-17T22:37:43.350Z,6.80
2023-02-17T22:40:16.418Z,6.80
2023-02-17T22:42:54.098Z,6.80
2023-02-17T22:46:03.220Z,6.80
2023-02-17T22:48:54.389Z,6.80
2023-02-17T22:51:31.791Z,6.70
2023-02-17T22:54:05.632Z,6.60
2023-02-17T22:56:48.175Z,6.60
2023-02-17T22:59:18.430Z,6.60
2023-02-17T23:01:53.817Z,6.70
2023-02-17T23:04:30.453Z,6.70
2023-02-17T23:06:59.122Z,6.70
2023-02-17T23:09:32.897Z,6.70
2023-02-17T23:12:16.554Z,6.60
2023-02-17T23:15:06.944Z,6.60
2023-02-17T23:18:03.782Z,6.40
2023-02-17T23:20:50.276Z,6.40
2023-02-17T23:23:28.332Z,6.40
2023-02-17T23:26:08.586Z,6.50
2023-02-17T23:28:52.038Z,6.50
2023-02-17T23:31:22.766Z,6.40
2023-02-17T23:33:50.789Z,6.40
2023-02-17T23:36:22.770Z,6.30
2023-02-17T23:38:53.065Z,6.30
2023-02-17T23:41:27.390Z,6.30
2023-02-17T23:44:06.327Z,6.30
2023-02-17T23:46:40.355Z,6.30
2023-02-17T23:49:17.120Z,6.30
2023-02-17T23:51:56.461Z,6.40
2023-02-17T23:54:32.910Z,6.40
